Time;durP1;ratioP1;P1;durP2;ratioP2;P2;SDS_P1;SDS_P2;PMS_P1;PMS_P2;Temp;Humidity;BMP_temperature;BMP_pressure;BME280_temperature;BME280_humidity;BME280_pressure;Samples;Min_cycle;Max_cycle;Signal;HPM_P1;HPM_P2
2023/07/27 07:01:35;;;;;;;1.10;0.70;;;17.30;99.90;18.10;100292.00;;;;6251461;22;1389495;-66
2023/07/27 07:04:05;;;;;;;1.07;1.00;;;17.20;99.90;19.10;100283.00;;;;6283996;22;20187;-67
2023/07/27 07:06:48;;;;;;;0.20;0.20;;;17.40;99.90;18.90;100254.00;;;;6309696;22;20174;-66
2023/07/27 07:09:16;;;;;;;1.97;1.30;;;17.40;99.90;19.10;100297.00;;;;6282309;22;20204;-66
2023/07/27 07:11:42;;;;;;;0.40;0.40;;;17.40;99.90;19.10;100295.00;;;;6282105;22;20158;-66
2023/07/27 07:14:13;;;;;;;1.30;0.90;;;17.40;99.90;19.00;100295.00;;;;6282058;22;20480;-66
2023/07/27 07:16:39;;;;;;;0.40;0.40;;;17.50;99.90;19.80;100284.00;;;;6309304;22;20548;-66
2023/07/27 07:19:08;;;;;;;0.30;0.30;;;17.70;99.90;20.60;100269.00;;;;6309391;22;20154;-66
2023/07/27 07:21:37;;;;;;;0.73;0.73;;;18.00;99.90;19.60;100274.00;;;;6309496;22;20566;-66
2023/07/27 07:24:06;;;;;;;0.73;0.73;;;17.70;99.90;19.00;100270.00;;;;6309036;22;20183;-66
2023/07/27 07:26:35;;;;;;;1.03;0.83;;;17.60;99.90;19.20;100269.00;;;;6256623;22;20478;-66
2023/07/27 07:29:07;;;;;;;0.73;0.60;;;17.70;99.90;19.10;100279.00;;;;6280076;22;20164;-66
2023/07/27 07:31:33;;;;;;;1.90;1.43;;;17.60;99.90;18.90;100273.00;;;;6282386;22;20153;-66
2023/07/27 07:34:02;;;;;;;2.10;1.13;;;17.50;99.90;18.90;100265.00;;;;6281875;22;20149;-65
2023/07/27 07:36:32;;;;;;;0.33;0.30;;;17.60;99.90;19.40;100274.00;;;;6281647;22;20157;-65
2023/07/27 07:39:01;;;;;;;1.13;1.03;;;17.70;99.90;19.80;100272.00;;;;6309269;22;20146;-65
2023/07/27 07:41:27;;;;;;;0.50;0.50;;;17.90;99.90;19.20;100262.00;;;;6282879;22;20195;-65
2023/07/27 07:43:56;;;;;;;0.30;0.30;;;17.70;99.90;20.00;100254.00;;;;6309390;22;20529;-65
2023/07/27 07:46:22;;;;;;;1.03;0.80;;;17.90;99.90;19.30;100259.00;;;;6309344;22;20142;-65
2023/07/27 07:49:02;;;;;;;1.07;0.97;;;17.90;99.90;19.90;100266.00;;;;6308616;22;20138;-66
2023/07/27 07:51:39;;;;;;;0.63;0.60;;;18.00;99.90;19.90;100244.00;;;;6282673;22;20167;-65
2023/07/27 07:54:09;;;;;;;0.30;0.30;;;18.20;99.90;20.30;100252.00;;;;6309264;22;20145;-65
2023/07/27 07:56:44;;;;;;;1.00;0.77;;;18.40;99.90;20.90;100251.00;;;;6308902;22;20570;-66
2023/07/27 07:59:15;;;;;;;0.40;0.40;;;18.60;99.90;20.10;100241.00;;;;6281154;22;20163;-65
2023/07/27 08:01:53;;;;;;;0.40;0.40;;;18.40;99.90;20.40;100249.00;;;;6281662;22;20155;-67
2023/07/27 08:04:19;;;;;;;0.40;0.40;;;18.40;99.90;21.50;100241.00;;;;6280982;22;20610;-66
2023/07/27 08:06:48;;;;;;;0.50;0.50;;;18.80;99.90;20.40;100244.00;;;;6306307;22;20174;-65
2023/07/27 08:09:19;;;;;;;0.30;0.30;;;18.60;99.90;19.70;100237.00;;;;6308954;22;20170;-65
2023/07/27 08:11:48;;;;;;;0.50;0.50;;;18.30;99.90;20.60;100248.00;;;;6254965;22;20589;-66
2023/07/27 08:14:14;;;;;;;7.83;3.50;;;18.40;99.90;20.50;100249.00;;;;6307936;22;20291;-65
2023/07/27 08:16:39;;;;;;;1.07;0.77;;;18.50;99.90;19.90;100248.00;;;;6308150;22;20575;-65
2023/07/27 08:19:11;;;;;;;0.80;0.53;;;18.30;99.90;19.40;100246.00;;;;6307387;22;20148;-65
2023/07/27 08:21:40;;;;;;;0.40;0.40;;;18.10;99.90;20.20;100252.00;;;;6308452;22;20144;-65
2023/07/27 08:24:14;;;;;;;0.30;0.30;;;18.30;99.90;20.00;100253.00;;;;6308850;22;20154;-65
2023/07/27 08:26:43;;;;;;;0.73;0.73;;;18.20;99.90;18.90;100253.00;;;;6308715;22;20169;-65
2023/07/27 08:29:09;;;;;;;1.47;0.37;;;17.90;99.90;19.80;100257.00;;;;6308815;22;20468;-65
2023/07/27 08:31:49;;;;;;;0.30;0.30;;;18.00;99.90;19.60;100225.00;;;;6308654;22;20140;-65
2023/07/27 08:34:17;;;;;;;0.30;0.30;;;18.00;99.90;20.00;100258.00;;;;6255052;22;20244;-65
2023/07/27 08:36:53;;;;;;;0.67;0.50;;;18.10;99.90;19.60;100251.00;;;;6281255;22;20154;-65
2023/07/27 08:39:19;;;;;;;0.60;0.60;;;18.20;99.90;19.30;100251.00;;;;6281597;22;20150;-65
2023/07/27 08:41:56;;;;;;;0.40;0.40;;;18.00;99.90;19.20;100255.00;;;;6308109;22;20142;-63
2023/07/27 08:44:23;;;;;;;0.73;0.60;;;17.90;99.90;19.10;100255.00;;;;6281958;22;20150;-62
2023/07/27 08:46:53;;;;;;;0.50;0.50;;;17.90;99.90;19.80;100249.00;;;;6280508;22;20181;-63
2023/07/27 08:49:25;;;;;;;0.80;0.77;;;18.10;99.90;20.10;100248.00;;;;6308736;22;20151;-64
2023/07/27 08:51:53;;;;;;;0.20;0.20;;;18.30;99.90;20.00;100248.00;;;;6281803;22;20595;-68
2023/07/27 08:54:19;;;;;;;1.73;1.07;;;18.30;99.90;19.90;100253.00;;;;6308901;22;20167;-65
2023/07/27 08:56:51;;;;;;;0.87;0.87;;;18.30;99.90;19.80;100255.00;;;;6279823;22;20139;-67
2023/07/27 08:59:25;;;;;;;2.60;0.70;;;18.30;99.90;19.40;100259.00;;;;6308173;22;20157;-65
2023/07/27 09:01:53;;;;;;;0.20;0.20;;;18.10;99.90;19.40;100257.00;;;;6254575;22;20466;-66
2023/07/27 09:04:19;;;;;;;0.30;0.30;;;18.00;99.90;21.20;100248.00;;;;6308170;22;20238;-66
2023/07/27 09:06:49;;;;;;;1.87;1.17;;;18.60;99.90;20.90;100241.00;;;;6307277;22;20512;-65
2023/07/27 09:09:28;;;;;;;0.60;0.60;;;18.90;99.90;19.80;100250.00;;;;6254764;22;20175;-65
2023/07/27 09:12:03;;;;;;;0.40;0.40;;;18.50;99.90;20.30;100229.00;;;;6282132;22;20172;-65
2023/07/27 09:14:41;;;;;;;0.30;0.30;;;18.50;99.90;20.30;100251.00;;;;6305014;22;20168;-65
2023/07/27 09:17:13;;;;;;;0.47;0.47;;;18.40;99.90;19.80;100250.00;;;;6277952;22;20496;-65
2023/07/27 09:19:41;;;;;;;0.50;0.40;;;18.30;99.90;19.30;100254.00;;;;6279430;22;20146;-65
2023/07/27 09:22:16;;;;;;;0.30;0.30;;;18.10;99.90;20.00;100254.00;;;;6279301;22;20147;-64
2023/07/27 09:24:44;;;;;;;0.20;0.20;;;18.20;99.90;20.10;100253.00;;;;6278860;22;20158;-65
2023/07/27 09:27:18;;;;;;;1.50;0.57;;;18.40;99.90;19.50;100255.00;;;;6305571;22;20562;-64
2023/07/27 09:30:02;;;;;;;1.40;0.87;;;18.20;99.90;19.50;100266.00;;;;6306257;22;20174;-64
2023/07/27 09:32:37;;;;;;;0.20;0.20;;;18.10;99.90;20.10;100250.00;;;;6304504;22;20171;-64
2023/07/27 09:35:16;;;;;;;0.83;0.70;;;18.30;99.90;19.90;100243.00;;;;6306103;22;20178;-64
2023/07/27 09:37:54;;;;;;;0.43;0.43;;;18.30;99.90;19.90;100252.00;;;;6279043;22;20153;-64
2023/07/27 09:40:34;;;;;;;0.20;0.20;;;18.30;99.90;20.60;100256.00;;;;6279257;22;20189;-64
2023/07/27 09:43:10;;;;;;;0.20;0.20;;;18.40;99.90;20.60;100256.00;;;;6278150;22;20160;-64
2023/07/27 09:45:44;;;;;;;0.45;0.32;;;18.60;99.90;19.30;100260.00;;;;6306244;22;20579;-65
2023/07/27 09:48:15;;;;;;;0.57;0.50;;;18.20;99.90;20.10;100254.00;;;;6305408;22;20138;-65
2023/07/27 09:50:46;;;;;;;0.20;0.20;;;18.30;99.90;20.80;100255.00;;;;6278163;22;20237;-65
2023/07/27 09:53:15;;;;;;;0.20;0.20;;;18.50;99.90;21.20;100251.00;;;;6276458;22;20689;-65
2023/07/27 09:55:43;;;;;;;0.33;0.33;;;18.90;99.90;20.40;100245.00;;;;6279127;22;20155;-64
2023/07/27 09:58:10;;;;;;;0.30;0.30;;;18.70;99.90;20.00;100244.00;;;;6279035;22;20216;-65
2023/07/27 10:00:44;;;;;;;0.30;0.30;;;18.60;99.90;20.40;100251.00;;;;6305217;22;20170;-65
2023/07/27 10:03:21;;;;;;;0.20;0.20;;;18.70;99.90;20.30;100257.00;;;;6305655;22;20493;-65
2023/07/27 10:05:55;;;;;;;0.50;0.50;;;18.50;99.90;20.70;100248.00;;;;6305903;22;20155;-65
2023/07/27 10:08:21;;;;;;;0.35;0.35;;;18.80;99.90;20.30;100227.00;;;;6278354;22;20206;-65
2023/07/27 10:11:00;;;;;;;0.28;0.28;;;18.70;99.90;20.30;100250.00;;;;6305345;22;20599;-66
2023/07/27 10:13:26;;;;;;;0.20;0.20;;;18.70;99.90;19.90;100265.00;;;;6252327;22;20276;-65
2023/07/27 10:16:00;;;;;;;0.20;0.20;;;18.50;99.90;20.40;100272.00;;;;6277087;22;20159;-65
2023/07/27 10:18:39;;;;;;;0.20;0.20;;;18.50;99.90;20.30;100271.00;;;;6278185;22;20148;-65
2023/07/27 10:33:32;;;;;;;0.20;0.20;;;18.20;99.90;19.10;100284.00;;;;5001798;27;4089945;-64
2023/07/27 10:36:09;;;;;;;0.60;0.60;;;18.20;99.90;19.20;100289.00;;;;5115011;28;20634;-63
2023/07/27 10:38:53;;;;;;;0.30;0.30;;;18.20;99.90;20.20;100283.00;;;;5120062;28;20180;-63
2023/07/27 10:41:28;;;;;;;0.73;0.67;;;18.30;99.90;19.50;100276.00;;;;5121260;28;20311;-65
2023/07/27 10:44:49;;;;;;;0.50;0.50;;;18.30;99.90;19.90;100274.00;;;;5117265;28;20197;-64
2023/07/27 10:47:35;;;;;;;1.95;0.98;;;18.30;99.90;20.10;100270.00;;;;5114664;28;20200;-63
2023/07/27 10:50:07;;;;;;;0.30;0.30;;;18.50;99.90;20.90;100285.00;;;;5118012;28;20175;-63
2023/07/27 10:52:51;;;;;;;0.68;0.57;;;18.80;99.90;20.10;100272.00;;;;5115609;28;20740;-63
2023/07/27 10:55:28;;;;;;;3.22;0.30;;;18.60;99.90;20.60;100275.00;;;;5114055;28;20188;-63
2023/07/27 10:57:56;;;;;;;2.30;1.27;;;18.80;99.90;20.30;100261.00;;;;5116496;28;20194;-63
2023/07/27 11:00:22;;;;;;;0.85;0.85;;;18.80;99.90;21.30;100262.00;;;;5121274;28;20279;-63
2023/07/27 11:03:31;;;;;;;0.35;0.35;;;19.10;99.90;21.00;100264.00;;;;5120522;28;20716;-63
2023/07/27 11:06:12;;;;;;;0.70;0.70;;;18.90;99.90;20.70;100247.00;;;;5071856;27;20211;-63
2023/07/27 11:08:46;;;;;;;0.38;0.38;;;19.10;99.90;20.70;100251.00;;;;5118725;28;20184;-63
2023/07/27 11:11:29;;;;;;;0.85;0.52;;;19.10;99.90;21.70;100255.00;;;;5114819;28;20180;-63
2023/07/27 11:14:13;;;;;;;0.52;0.52;;;19.40;99.90;20.60;100251.00;;;;5124545;28;20184;-66
2023/07/27 11:17:29;;;;;;;7.10;1.13;;;19.00;99.90;20.20;100251.00;;;;5110067;28;20710;-65
2023/07/27 11:20:35;;;;;;;0.73;0.73;;;18.80;99.90;21.20;100249.00;;;;5136105;27;20260;-63
2023/07/27 11:27:14;;;;;;;0.60;0.60;;;19.30;99.90;20.90;100226.00;;;;5094588;28;20190;-64
2023/07/27 11:30:12;;;;;;;1.10;0.75;;;19.20;99.90;20.20;100259.00;;;;5093723;28;20657;-63
2023/07/27 11:33:26;;;;;;;0.95;0.95;;;19.10;99.90;21.00;100254.00;;;;5121854;28;20579;-63
2023/07/27 11:36:00;;;;;;;0.95;0.45;;;19.00;99.90;21.20;100251.00;;;;5100514;28;20286;-63
2023/07/27 11:38:34;;;;;;;0.30;0.30;;;19.30;99.90;21.30;100256.00;;;;5113009;28;20175;-64
2023/07/27 11:41:06;;;;;;;0.52;0.52;;;19.30;99.90;21.30;100257.00;;;;5118758;28;20632;-64
2023/07/27 11:43:38;;;;;;;0.25;0.25;;;19.40;99.90;20.80;100250.00;;;;5113907;27;20574;-64
2023/07/27 11:46:08;;;;;;;0.40;0.40;;;19.20;99.90;20.90;100264.00;;;;5094728;28;20205;-64
2023/07/27 11:48:37;;;;;;;0.40;0.40;;;19.20;99.90;20.40;100262.00;;;;5103800;28;20271;-65
2023/07/27 11:51:06;;;;;;;0.63;0.63;;;19.00;99.90;20.90;100272.00;;;;5100666;28;20661;-63
2023/07/27 11:53:34;;;;;;;0.47;0.47;;;19.10;99.90;20.10;100266.00;;;;5113205;28;20270;-63
2023/07/27 11:56:19;;;;;;;0.60;0.50;;;18.90;99.90;20.60;100267.00;;;;5112685;28;20191;-63
2023/07/27 11:58:56;;;;;;;0.47;0.47;;;19.00;99.90;20.30;100275.00;;;;5105557;28;20638;-64
2023/07/27 12:01:38;;;;;;;0.47;0.47;;;18.90;99.90;21.80;100259.00;;;;5107040;28;20229;-64
2023/07/27 12:04:04;;;;;;;1.20;1.17;;;19.40;99.90;20.70;100267.00;;;;5101429;28;20635;-66
2023/07/27 12:06:36;;;;;;;0.70;0.60;;;19.10;99.90;20.30;100266.00;;;;5104871;28;20181;-64
2023/07/27 12:09:13;;;;;;;1.20;0.53;;;18.90;99.90;20.50;100256.00;;;;5096088;28;20218;-64
2023/07/27 12:11:49;;;;;;;2.35;2.25;;;18.90;99.90;20.00;100279.00;;;;5101108;28;20210;-64
2023/07/27 12:14:26;;;;;;;0.40;0.40;;;18.80;99.90;19.90;100287.00;;;;5089274;28;20196;-64
2023/07/27 12:17:09;;;;;;;0.88;0.82;;;18.70;99.90;19.80;100288.00;;;;5098035;28;20534;-64
2023/07/27 12:19:45;;;;;;;0.75;0.75;;;18.60;99.90;20.00;100285.00;;;;5102180;28;20658;-64
2023/07/27 12:22:19;;;;;;;0.45;0.45;;;18.60;99.90;20.00;100294.00;;;;5106101;28;20190;-64
2023/07/27 12:25:02;;;;;;;0.30;0.30;;;18.60;99.90;20.00;100287.00;;;;5099340;28;20217;-64
2023/07/27 12:27:31;;;;;;;0.57;0.53;;;18.60;99.90;20.20;100288.00;;;;5102868;28;20258;-64
2023/07/27 12:29:57;;;;;;;0.98;0.93;;;18.60;99.90;20.50;100282.00;;;;5104030;28;20185;-64
2023/07/27 12:32:23;;;;;;;0.60;0.60;;;18.80;99.90;20.10;100274.00;;;;5104510;28;20211;-64
2023/07/27 12:34:51;;;;;;;0.60;0.60;;;18.80;99.90;20.00;100277.00;;;;5108341;28;20613;-64
2023/07/27 12:37:17;;;;;;;0.20;0.20;;;18.70;99.90;21.50;100252.00;;;;5109605;28;20225;-64
2023/07/27 12:39:43;;;;;;;0.40;0.40;;;19.20;99.90;21.30;100268.00;;;;5102774;28;20212;-66
2023/07/27 12:42:12;;;;;;;1.58;1.02;;;19.30;99.90;21.20;100267.00;;;;5108198;27;20184;-66
2023/07/27 12:44:40;;;;;;;0.40;0.40;;;19.30;99.90;21.30;100268.00;;;;5105034;28;20751;-66
2023/07/27 12:47:49;;;;;;;0.20;0.20;;;19.20;99.90;20.90;100270.00;;;;5101680;28;20623;-64
2023/07/27 12:50:57;;;;;;;0.30;0.30;;;19.00;99.90;21.20;100274.00;;;;5102322;28;20172;-66
2023/07/27 12:54:04;;;;;;;0.68;0.68;;;19.20;99.90;20.40;100275.00;;;;5095075;28;20200;-66
2023/07/27 12:57:25;;;;;;;1.25;0.80;;;19.10;99.90;20.30;100282.00;;;;5092967;28;20615;-66
2023/07/27 13:00:26;;;;;;;0.70;0.70;;;19.00;99.90;20.10;100282.00;;;;5097191;28;20192;-66
2023/07/27 13:03:26;;;;;;;1.00;1.00;;;18.90;99.90;20.80;100280.00;;;;5092799;28;20194;-65
2023/07/27 13:06:32;;;;;;;0.70;0.70;;;18.90;99.90;20.70;100286.00;;;;5094640;28;20638;-66
2023/07/27 13:09:27;;;;;;;0.30;0.30;;;18.80;99.90;21.40;100274.00;;;;5098007;28;20180;-66
2023/07/27 13:12:45;;;;;;;0.70;0.70;;;19.10;99.90;20.20;100285.00;;;;5101792;28;20200;-66
2023/07/27 13:15:56;;;;;;;1.52;0.73;;;18.90;99.90;20.00;100288.00;;;;5096295;28;20181;-66
2023/07/27 13:18:27;;;;;;;0.22;0.22;;;18.70;99.90;20.10;100270.00;;;;5094171;28;20210;-66
2023/07/27 13:21:40;;;;;;;2.17;1.05;;;18.70;99.90;20.60;100284.00;;;;5094543;28;20180;-66
2023/07/27 13:24:50;;;;;;;0.20;0.20;;;18.90;99.90;21.50;100286.00;;;;5084376;28;20172;-66
2023/07/27 13:28:01;;;;;;;0.40;0.40;;;19.20;99.90;21.40;100279.00;;;;5076370;28;20181;-66
2023/07/27 13:31:28;;;;;;;0.20;0.20;;;19.20;99.90;22.00;100269.00;;;;5081583;28;20215;-66
2023/07/27 13:34:18;;;;;;;0.60;0.60;;;19.50;99.90;20.00;100279.00;;;;5098525;28;20556;-66
2023/07/27 13:40:27;;;;;;;1.35;0.75;;;19.00;99.90;20.20;100283.00;;;;5096165;27;20653;-66
2023/07/27 13:43:52;;;;;;;0.47;0.47;;;18.90;99.90;20.70;100295.00;;;;5079814;28;20291;-66
2023/07/27 13:46:42;;;;;;;0.77;0.77;;;19.00;99.90;20.10;100288.00;;;;5080218;28;20769;-66
2023/07/27 13:49:31;;;;;;;0.20;0.20;;;18.90;99.90;20.20;100291.00;;;;5092725;28;20207;-66
2023/07/27 13:52:33;;;;;;;0.32;0.32;;;18.80;99.90;20.20;100303.00;;;;5092605;28;20302;-66
2023/07/27 13:55:40;;;;;;;0.50;0.50;;;18.80;99.90;20.70;100300.00;;;;5104671;28;20279;-66
2023/07/27 13:58:43;;;;;;;0.30;0.30;;;18.80;99.90;21.30;100288.00;;;;5088012;28;20198;-66
2023/07/27 14:01:43;;;;;;;0.52;0.52;;;19.10;99.90;20.60;100296.00;;;;5103264;28;20182;-66
2023/07/27 14:04:44;;;;;;;0.38;0.38;;;19.00;99.90;20.00;100291.00;;;;5098857;28;20185;-66
2023/07/27 14:07:46;;;;;;;0.20;0.20;;;18.80;99.90;21.70;100297.00;;;;5099483;28;20184;-66
2023/07/27 14:10:32;;;;;;;0.83;0.77;;;19.20;99.90;20.60;100287.00;;;;5103921;28;20264;-66
2023/07/27 14:13:17;;;;;;;0.20;0.20;;;19.10;99.90;20.70;100295.00;;;;5100407;28;20701;-66
2023/07/27 14:16:03;;;;;;;0.20;0.20;;;19.00;99.90;20.50;100295.00;;;;5102426;28;20274;-66
2023/07/27 14:18:49;;;;;;;0.20;0.20;;;18.80;99.90;21.50;100301.00;;;;5102553;28;20211;-66
2023/07/27 14:21:18;;;;;;;0.20;0.20;;;19.00;99.90;21.10;100302.00;;;;5109039;28;20184;-66
2023/07/27 14:23:49;;;;;;;1.15;1.05;;;19.10;99.90;20.80;100294.00;;;;5096042;28;20191;-66
2023/07/27 14:26:23;;;;;;;0.30;0.30;;;19.20;99.90;21.00;100305.00;;;;5105774;28;20274;-66
2023/07/27 14:28:57;;;;;;;0.63;0.63;;;19.00;99.90;21.30;100296.00;;;;5096492;28;20292;-66
2023/07/27 14:31:28;;;;;;;0.67;0.67;;;19.20;99.90;20.50;100306.00;;;;5099623;28;20188;-66
2023/07/27 14:38:13;;;;;;;1.10;0.77;;;18.60;99.90;19.90;100313.00;;;;5100255;28;20306;-66
2023/07/27 14:41:35;;;;;;;1.33;1.23;;;18.60;99.90;20.00;100310.00;;;;5102738;28;20201;-66
2023/07/27 14:44:09;;;;;;;1.25;0.93;;;18.60;99.90;19.80;100323.00;;;;5098451;28;20188;-66
2023/07/27 14:46:43;;;;;;;0.33;0.33;;;18.50;99.90;20.20;100333.00;;;;5099311;28;20296;-66
2023/07/27 14:49:20;;;;;;;0.77;0.70;;;18.50;99.90;20.20;100323.00;;;;5082173;28;20198;-66
2023/07/27 14:51:57;;;;;;;0.90;0.63;;;18.60;99.90;19.50;100316.00;;;;5099405;28;20272;-66
2023/07/27 14:54:26;;;;;;;0.73;0.73;;;18.50;99.90;20.10;100324.00;;;;5102452;28;20217;-66
2023/07/27 14:56:57;;;;;;;0.40;0.40;;;18.60;99.90;20.30;100332.00;;;;5097652;28;20214;-66
2023/07/27 14:59:34;;;;;;;0.75;0.75;;;18.80;99.90;20.30;100324.00;;;;5097807;28;20188;-66
2023/07/27 15:02:08;;;;;;;0.50;0.50;;;18.80;99.90;20.50;100325.00;;;;5100842;28;20209;-66
2023/07/27 15:04:40;;;;;;;0.50;0.50;;;18.80;99.90;20.30;100312.00;;;;5099340;28;20195;-66
2023/07/27 15:07:16;;;;;;;0.30;0.30;;;18.90;99.90;20.00;100311.00;;;;5106077;28;20184;-66
2023/07/27 15:09:42;;;;;;;0.20;0.20;;;18.70;99.90;20.10;100322.00;;;;5098249;28;20706;-66
2023/07/27 15:12:13;;;;;;;0.20;0.20;;;18.70;99.90;20.00;100309.00;;;;5098126;28;20302;-66
2023/07/27 15:14:47;;;;;;;0.20;0.20;;;18.60;99.90;20.50;100308.00;;;;5104462;28;20270;-66
2023/07/27 15:17:24;;;;;;;0.30;0.30;;;18.70;99.90;20.40;100308.00;;;;5095280;28;20192;-66
2023/07/27 15:20:17;;;;;;;0.22;0.22;;;18.70;99.90;20.40;100311.00;;;;5104266;28;20179;-66
2023/07/27 15:22:48;;;;;;;0.30;0.30;;;18.80;99.90;20.80;100309.00;;;;5099137;28;20639;-66
2023/07/27 15:25:19;;;;;;;0.60;0.45;;;18.80;99.90;20.90;100300.00;;;;5098956;28;20203;-66
2023/07/27 15:27:50;;;;;;;0.77;0.77;;;18.90;99.90;20.20;100298.00;;;;5100786;28;20196;-66
2023/07/27 15:30:24;;;;;;;1.08;0.98;;;18.80;99.90;19.80;100313.00;;;;5099040;28;20208;-66
2023/07/27 15:32:59;;;;;;;0.68;0.63;;;18.70;99.90;20.70;100316.00;;;;5098927;28;20211;-66
2023/07/27 15:35:49;;;;;;;0.30;0.30;;;18.80;99.90;19.90;100308.00;;;;5102124;28;20189;-66
2023/07/27 15:38:32;;;;;;;0.40;0.40;;;18.70;99.90;20.60;100288.00;;;;5102989;28;20203;-66
2023/07/27 15:41:25;;;;;;;0.45;0.35;;;18.80;99.90;20.50;100245.00;;;;5102276;28;20249;-66
2023/07/27 15:44:00;;;;;;;0.60;0.60;;;18.70;99.90;19.80;100296.00;;;;5107314;27;20206;-66
2023/07/27 15:46:34;;;;;;;0.30;0.30;;;18.70;99.90;20.70;100292.00;;;;5100893;28;20185;-66
2023/07/27 15:49:07;;;;;;;0.73;0.40;;;18.80;99.90;19.80;100293.00;;;;5102191;28;20550;-66
2023/07/27 15:51:41;;;;;;;0.30;0.30;;;18.60;99.90;20.40;100291.00;;;;5103120;28;20237;-66
2023/07/27 15:54:18;;;;;;;0.13;0.13;;;18.70;99.90;20.40;100292.00;;;;5102226;28;20196;-66
2023/07/27 15:56:52;;;;;;;0.40;0.40;;;18.70;99.90;21.00;100301.00;;;;5100476;28;20195;-65
2023/07/27 15:59:23;;;;;;;2.57;1.17;;;18.90;99.90;20.30;100289.00;;;;5100599;28;20196;-65
2023/07/27 16:01:54;;;;;;;0.52;0.52;;;18.90;99.90;20.10;100269.00;;;;5103889;28;20239;-65
2023/07/27 16:04:25;;;;;;;0.57;0.57;;;18.80;99.90;20.10;100296.00;;;;5100065;28;20651;-65
2023/07/27 16:06:59;;;;;;;0.47;0.47;;;18.80;99.90;20.60;100292.00;;;;5101617;28;20192;-66
2023/07/27 16:09:56;;;;;;;0.30;0.30;;;19.00;99.90;21.00;100288.00;;;;5102239;28;20265;-66
2023/07/27 16:12:39;;;;;;;0.25;0.25;;;19.20;99.90;21.10;100281.00;;;;5085299;28;20212;-66
2023/07/27 16:15:13;;;;;;;0.73;0.63;;;19.20;99.90;20.10;100282.00;;;;5102629;28;20226;-65
2023/07/27 16:17:48;;;;;;;0.30;0.30;;;19.00;99.90;20.40;100279.00;;;;5101483;28;20261;-65
2023/07/27 16:20:22;;;;;;;0.40;0.40;;;19.00;99.90;20.70;100287.00;;;;5102577;28;20332;-66
2023/07/27 16:22:56;;;;;;;0.20;0.20;;;19.10;99.90;20.60;100295.00;;;;5100177;28;20191;-66
2023/07/27 16:25:31;;;;;;;0.20;0.20;;;18.90;99.90;21.50;100288.00;;;;5093307;28;20663;-66
2023/07/27 16:28:10;;;;;;;0.28;0.28;;;19.30;99.90;20.60;100288.00;;;;5107658;28;20183;-66
2023/07/27 16:30:47;;;;;;;0.35;0.35;;;19.10;99.90;20.90;100295.00;;;;5100030;28;20548;-65
2023/07/27 16:33:21;;;;;;;2.13;0.82;;;19.10;99.90;21.00;100292.00;;;;5103061;28;20255;-66
2023/07/27 16:35:52;;;;;;;0.20;0.20;;;19.10;99.90;21.40;100288.00;;;;5106513;28;20267;-66
2023/07/27 16:38:25;;;;;;;1.60;1.00;;;19.10;99.90;20.20;100299.00;;;;5101123;28;20238;-65
2023/07/27 16:40:56;;;;;;;1.00;0.93;;;18.90;99.90;19.80;100285.00;;;;5099023;28;20211;-65
2023/07/27 16:43:33;;;;;;;0.13;0.13;;;18.50;99.90;20.40;100310.00;;;;5103065;28;20689;-64
2023/07/27 16:46:07;;;;;;;14.23;0.82;;;18.50;99.90;19.70;100309.00;;;;5103407;28;20189;-65
2023/07/27 16:48:38;;;;;;;0.40;0.40;;;18.40;99.90;19.70;100308.00;;;;5103053;28;20299;-64
2023/07/27 16:51:21;;;;;;;0.73;0.38;;;18.40;99.90;19.50;100322.00;;;;5098759;28;20569;-65
2023/07/27 16:53:57;;;;;;;0.60;0.60;;;18.30;99.90;19.70;100309.00;;;;5103652;28;20277;-64
2023/07/27 16:56:52;;;;;;;0.20;0.20;;;18.30;99.90;20.40;100308.00;;;;5106338;28;20198;-64
2023/07/27 17:00:00;;;;;;;2.07;0.30;;;18.30;99.90;20.00;100303.00;;;;5084828;28;20241;-65
2023/07/27 17:02:51;;;;;;;0.10;0.10;;;18.30;99.90;20.20;100306.00;;;;5100159;28;20615;-65
2023/07/27 17:05:36;;;;;;;0.73;0.73;;;18.40;99.90;20.50;100299.00;;;;5107606;28;20564;-65
2023/07/27 17:08:10;;;;;;;0.27;0.27;;;18.60;99.90;20.40;100295.00;;;;5111527;28;20176;-65
2023/07/27 17:11:19;;;;;;;0.30;0.30;;;18.50;99.90;20.40;100293.00;;;;5107172;28;20606;-64
2023/07/27 17:13:58;;;;;;;0.10;0.10;;;18.60;99.90;20.80;100296.00;;;;5101816;27;20179;-65
2023/07/27 17:16:52;;;;;;;0.30;0.30;;;18.70;99.90;20.20;100288.00;;;;5101371;28;20182;-65
2023/07/27 17:19:52;;;;;;;0.93;0.93;;;18.70;99.90;21.00;100297.00;;;;5096687;28;20183;-65
2023/07/27 17:22:56;;;;;;;0.47;0.47;;;18.70;99.90;20.70;100273.00;;;;5066566;28;20208;-64
2023/07/27 17:25:38;;;;;;;2.17;0.90;;;18.90;99.90;21.00;100279.00;;;;5093644;28;20275;-64
2023/07/27 17:28:33;;;;;;;0.20;0.20;;;19.00;99.90;21.20;100280.00;;;;5107726;28;20180;-64
2023/07/27 17:31:33;;;;;;;0.40;0.40;;;19.10;99.90;21.00;100277.00;;;;5107512;28;20582;-64
2023/07/27 17:34:40;;;;;;;0.20;0.20;;;19.10;99.90;20.50;100285.00;;;;5096769;28;20196;-64
2023/07/27 17:37:53;;;;;;;0.20;0.20;;;18.80;99.90;20.90;100286.00;;;;5095792;28;20193;-64
2023/07/27 17:40:39;;;;;;;0.10;0.10;;;19.00;99.90;21.20;100262.00;;;;5097920;28;20264;-64
2023/07/27 17:43:39;;;;;;;0.20;0.20;;;19.10;99.90;21.20;100268.00;;;;5101741;28;20573;-64
2023/07/27 17:46:25;;;;;;;0.20;0.20;;;19.00;99.90;21.10;100271.00;;;;5100021;28;20179;-64
2023/07/27 17:48:53;;;;;;;0.20;0.20;;;19.00;99.90;21.30;100265.00;;;;5107457;28;20184;-64
2023/07/27 17:51:29;;;;;;;0.68;0.38;;;19.10;99.90;19.90;100273.00;;;;5107956;28;20194;-64
2023/07/27 17:54:55;;;;;;;0.20;0.20;;;18.70;99.90;21.00;100281.00;;;;5098225;28;20196;-64
2023/07/27 17:58:02;;;;;;;0.20;0.20;;;18.90;99.90;20.70;100280.00;;;;5104099;28;20198;-64
2023/07/27 18:01:13;;;;;;;0.22;0.22;;;18.90;99.90;20.60;100279.00;;;;5082725;28;20552;-64
2023/07/27 18:04:45;;;;;;;0.20;0.20;;;18.70;99.90;20.60;100293.00;;;;5105560;28;20213;-64
2023/07/27 18:07:17;;;;;;;0.57;0.57;;;18.70;99.90;20.40;100288.00;;;;5102451;28;20623;-64
2023/07/27 18:09:45;;;;;;;0.20;0.20;;;18.70;99.90;20.50;100301.00;;;;5103839;28;20188;-65
2023/07/27 18:12:11;;;;;;;0.98;0.30;;;18.70;99.90;20.40;100290.00;;;;5098348;28;20246;-67
2023/07/27 18:14:37;;;;;;;0.77;0.77;;;18.70;99.90;21.60;100288.00;;;;5100226;27;20187;-65
2023/07/27 18:17:04;;;;;;;0.32;0.32;;;19.00;99.90;20.40;100284.00;;;;5100417;28;20749;-65
2023/07/27 18:19:55;;;;;;;0.30;0.30;;;18.80;99.90;20.80;100296.00;;;;5102230;28;20187;-64
2023/07/27 18:23:01;;;;;;;0.20;0.20;;;18.80;99.90;21.10;100289.00;;;;5097080;28;20228;-65
2023/07/27 18:25:30;;;;;;;0.45;0.40;;;19.00;99.90;21.50;100278.00;;;;5098536;28;20191;-65
2023/07/27 18:28:07;;;;;;;1.08;0.77;;;19.10;99.90;20.70;100275.00;;;;5100984;28;20199;-65
2023/07/27 18:30:38;;;;;;;0.30;0.30;;;19.00;99.90;21.50;100264.00;;;;5099559;28;20208;-65
2023/07/27 18:33:48;;;;;;;0.20;0.20;;;19.10;99.90;20.40;100288.00;;;;5099198;28;20238;-65
2023/07/27 18:36:39;;;;;;;0.30;0.30;;;19.10;99.90;20.40;100293.00;;;;5100857;28;20195;-64
2023/07/27 18:39:13;;;;;;;0.37;0.37;;;18.90;99.90;20.70;100292.00;;;;5100915;28;20184;-65
2023/07/27 18:41:48;;;;;;;2.30;0.57;;;18.80;99.90;20.50;100262.00;;;;5097563;28;20838;-65
2023/07/27 18:44:24;;;;;;;0.20;0.20;;;18.80;99.90;20.30;100289.00;;;;5098073;28;20899;-64
2023/07/27 18:46:50;;;;;;;0.20;0.20;;;18.70;99.90;20.80;100304.00;;;;5102304;28;20634;-64
2023/07/27 18:49:39;;;;;;;2.35;0.30;;;18.70;99.90;20.20;100290.00;;;;5103214;28;20192;-64
2023/07/27 18:52:33;;;;;;;0.10;0.10;;;18.70;99.90;21.70;100297.00;;;;5096658;28;20280;-64
2023/07/27 18:55:08;;;;;;;0.30;0.30;;;18.90;99.90;21.70;100288.00;;;;5102878;28;20206;-64
2023/07/27 18:57:38;;;;;;;0.20;0.20;;;19.20;99.90;21.20;100292.00;;;;5102761;28;20184;-64
2023/07/27 19:00:09;;;;;;;0.20;0.20;;;19.00;99.90;20.50;100297.00;;;;5115059;28;20184;-64
2023/07/27 19:02:40;;;;;;;0.20;0.20;;;18.80;99.90;20.50;100294.00;;;;5105486;28;20200;-64
2023/07/27 19:05:06;;;;;;;0.33;0.33;;;18.80;99.90;20.20;100305.00;;;;5107296;28;20188;-64
2023/07/27 19:07:52;;;;;;;0.20;0.20;;;18.70;99.90;20.50;100309.00;;;;5109421;28;20569;-64